Time;durP1;ratioP1;P1;durP2;ratioP2;P2;SDS_P1;SDS_P2;PMS_P1;PMS_P2;Temp;Humidity;BMP_temperature;BMP_pressure;BME280_temperature;BME280_humidity;BME280_pressure;Samples;Min_cycle;Max_cycle;Signal;HPM_P1;HPM_P2
2021/12/26 00:00:53;;;;;;;4.15;1.45;;;-5.10;99.40;;;;;;5071212;28;20037;-56
2021/12/26 00:03:19;;;;;;;4.22;1.55;;;-5.10;99.40;;;;;;5070484;28;20055;-55
2021/12/26 00:05:45;;;;;;;3.05;2.00;;;-5.10;99.20;;;;;;5071247;28;20078;-58
2021/12/26 00:08:11;;;;;;;2.80;1.33;;;-5.10;99.20;;;;;;5071925;28;20036;-56
2021/12/26 00:10:37;;;;;;;3.03;1.60;;;-5.10;99.30;;;;;;5071815;28;20078;-57
2021/12/26 00:13:03;;;;;;;6.27;2.57;;;-5.10;99.20;;;;;;5071351;28;20279;-57
2021/12/26 00:15:29;;;;;;;3.72;1.90;;;-5.10;99.20;;;;;;5081384;28;20115;-57
2021/12/26 00:17:55;;;;;;;5.75;2.50;;;-5.20;99.00;;;;;;5080319;28;20071;-55
2021/12/26 00:20:21;;;;;;;3.23;2.47;;;-5.20;99.10;;;;;;5086298;28;20096;-56
2021/12/26 00:22:47;;;;;;;1.65;1.38;;;-5.20;99.20;;;;;;5071453;28;20112;-56
2021/12/26 00:25:13;;;;;;;4.65;2.15;;;-5.20;99.00;;;;;;5088760;28;20114;-56
2021/12/26 00:27:40;;;;;;;4.18;2.45;;;-5.20;99.00;;;;;;5082579;28;20074;-55
2021/12/26 00:30:11;;;;;;;1.70;1.52;;;-5.20;99.00;;;;;;5088040;28;20131;-57
2021/12/26 00:32:37;;;;;;;3.78;2.10;;;-5.20;98.90;;;;;;5091331;28;20036;-55
2021/12/26 00:35:04;;;;;;;4.88;2.10;;;-5.20;98.90;;;;;;5076043;28;20047;-55
2021/12/26 00:37:29;;;;;;;5.30;2.20;;;-5.20;98.90;;;;;;5077955;28;20042;-57
2021/12/26 00:39:55;;;;;;;4.93;1.57;;;-5.20;98.80;;;;;;5075477;28;20432;-53
2021/12/26 00:42:20;;;;;;;4.00;1.83;;;-5.30;98.80;;;;;;5076477;28;20031;-56
2021/12/26 00:44:46;;;;;;;3.87;2.00;;;-5.30;98.70;;;;;;5080090;28;20039;-57
2021/12/26 00:47:12;;;;;;;2.03;1.83;;;-5.30;98.90;;;;;;5075612;28;20032;-56
2021/12/26 00:49:39;;;;;;;2.80;2.05;;;-5.30;98.80;;;;;;5087633;28;20047;-53
2021/12/26 00:52:05;;;;;;;;;;;-5.30;98.70;;;;;;5091530;28;20127;-56
2021/12/26 00:54:31;;;;;;;5.05;2.17;;;-5.30;98.60;;;;;;5081556;28;19917;-54
2021/12/26 00:56:57;;;;;;;2.72;1.70;;;-5.30;98.50;;;;;;5073259;28;20432;-56
2021/12/26 00:59:25;;;;;;;2.60;1.95;;;-5.30;98.50;;;;;;5087064;28;20048;-56
2021/12/26 01:01:53;;;;;;;5.35;2.17;;;-5.30;98.40;;;;;;5090004;28;20293;-56
2021/12/26 01:04:19;;;;;;;4.18;2.30;;;-5.30;98.50;;;;;;5077550;28;20044;-53
2021/12/26 01:06:45;;;;;;;10.07;4.15;;;-5.30;98.30;;;;;;5073489;28;20268;-52
2021/12/26 01:09:16;;;;;;;4.57;1.90;;;-5.30;98.20;;;;;;5086097;28;20323;-56
2021/12/26 01:11:47;;;;;;;6.18;2.25;;;-5.30;98.10;;;;;;5070333;28;20271;-57
2021/12/26 01:14:17;;;;;;;4.35;1.50;;;-5.30;97.90;;;;;;5072102;28;20093;-56
2021/12/26 01:16:44;;;;;;;3.80;1.55;;;-5.30;97.80;;;;;;5092932;28;20085;-57
2021/12/26 01:19:14;;;;;;;6.40;2.63;;;-5.30;97.70;;;;;;5090272;28;20055;-57
2021/12/26 01:21:41;;;;;;;2.70;1.75;;;-5.30;97.50;;;;;;5076597;28;20089;-55
2021/12/26 01:24:11;;;;;;;5.05;2.65;;;-5.30;97.60;;;;;;5077903;28;20041;-57
2021/12/26 01:26:37;;;;;;;4.65;1.63;;;-5.30;97.40;;;;;;5087913;28;20048;-57
2021/12/26 01:29:04;;;;;;;4.03;1.38;;;-5.30;97.40;;;;;;5061377;28;20040;-57
2021/12/26 01:31:29;;;;;;;4.72;1.38;;;-5.30;97.30;;;;;;5070396;28;20040;-56
2021/12/26 01:33:58;;;;;;;2.33;1.92;;;-5.30;97.00;;;;;;5068173;28;20040;-57
2021/12/26 01:36:26;;;;;;;5.85;1.90;;;-5.30;97.00;;;;;;5070987;28;20036;-55
2021/12/26 01:38:53;;;;;;;2.97;2.05;;;-5.30;96.90;;;;;;5063901;28;20404;-56
2021/12/26 01:41:19;;;;;;;3.63;1.90;;;-5.30;96.90;;;;;;5087231;28;20074;-53
2021/12/26 01:43:47;;;;;;;3.77;2.23;;;-5.30;96.90;;;;;;5088684;28;20036;-56
2021/12/26 01:46:15;;;;;;;2.45;1.63;;;-5.30;96.90;;;;;;5072862;28;20119;-52
2021/12/26 01:48:40;;;;;;;3.08;2.03;;;-5.30;96.90;;;;;;5071530;28;20484;-56
2021/12/26 01:51:06;;;;;;;4.30;1.70;;;-5.30;97.00;;;;;;5077863;28;20509;-56
2021/12/26 01:53:38;;;;;;;3.03;1.95;;;-5.30;97.00;;;;;;5070529;28;20290;-57
2021/12/26 01:56:07;;;;;;;2.85;1.40;;;-5.30;97.10;;;;;;5069633;28;20040;-57
2021/12/26 01:58:35;;;;;;;2.30;1.60;;;-5.30;97.00;;;;;;5070214;28;20090;-56
2021/12/26 02:01:07;;;;;;;3.80;2.55;;;-5.30;96.90;;;;;;5076686;28;20497;-54
2021/12/26 02:03:34;;;;;;;4.30;2.35;;;-5.30;96.80;;;;;;5088676;28;20489;-52
2021/12/26 02:06:00;;;;;;;;;;;-5.30;96.60;;;;;;5085878;28;20092;-52
2021/12/26 02:08:26;;;;;;;4.13;1.83;;;-5.30;96.50;;;;;;5089847;28;19928;-51
2021/12/26 02:10:52;;;;;;;3.87;2.03;;;-5.30;96.40;;;;;;5074311;28;20036;-54
2021/12/26 02:13:17;;;;;;;4.13;2.20;;;-5.30;96.50;;;;;;5070458;28;20033;-57
2021/12/26 02:15:43;;;;;;;2.97;2.13;;;-5.30;96.30;;;;;;5075157;28;20029;-57
2021/12/26 02:18:09;;;;;;;2.63;2.30;;;-5.30;96.10;;;;;;5069687;28;20110;-57
2021/12/26 02:23:47;;;;;;;2.28;1.65;;;-5.30;96.10;;;;;;5082420;28;20040;-59
2021/12/26 02:28:42;;;;;;;3.13;1.75;;;-5.30;96.00;;;;;;5072853;28;20405;-55
2021/12/26 02:31:08;;;;;;;2.45;2.22;;;-5.30;96.00;;;;;;5084976;28;20115;-56
2021/12/26 02:33:34;;;;;;;4.63;2.00;;;-5.30;96.00;;;;;;5061943;28;20492;-54
2021/12/26 02:36:00;;;;;;;2.63;2.42;;;-5.30;95.80;;;;;;5078306;28;20098;-57
2021/12/26 02:38:26;;;;;;;4.03;2.78;;;-5.30;95.90;;;;;;5072435;28;20071;-57
2021/12/26 02:40:54;;;;;;;2.43;1.90;;;-5.30;95.80;;;;;;5077054;28;20064;-57
2021/12/26 02:43:22;;;;;;;3.08;1.70;;;-5.30;95.80;;;;;;5080857;28;20040;-55
2021/12/26 02:45:48;;;;;;;3.15;1.98;;;-5.30;95.70;;;;;;5080085;28;20032;-57
2021/12/26 02:48:15;;;;;;;2.92;2.05;;;-5.30;95.90;;;;;;5074482;28;20047;-55
2021/12/26 02:50:43;;;;;;;2.10;1.60;;;-5.40;95.60;;;;;;5080849;28;20497;-53
2021/12/26 02:53:11;;;;;;;3.33;2.00;;;-5.40;95.50;;;;;;5073347;28;20036;-56
2021/12/26 02:55:37;;;;;;;4.30;1.67;;;-5.40;95.50;;;;;;5084086;28;20036;-56
2021/12/26 02:58:06;;;;;;;4.72;2.33;;;-5.40;95.50;;;;;;5074393;28;20435;-58
2021/12/26 03:00:38;;;;;;;8.20;2.20;;;-5.30;95.50;;;;;;5079939;28;20028;-56
2021/12/26 03:03:05;;;;;;;3.35;2.28;;;-5.40;95.30;;;;;;5086425;28;20079;-56
2021/12/26 03:05:34;;;;;;;2.47;1.50;;;-5.40;95.20;;;;;;5081206;28;20036;-57
2021/12/26 03:08:00;;;;;;;5.15;2.08;;;-5.40;95.20;;;;;;5072328;28;20052;-57
2021/12/26 03:10:26;;;;;;;3.65;1.85;;;-5.40;95.00;;;;;;5078475;28;20038;-57
2021/12/26 03:12:55;;;;;;;3.75;2.08;;;-5.40;95.20;;;;;;5092882;28;20120;-57
2021/12/26 03:15:22;;;;;;;3.03;2.30;;;-5.40;95.10;;;;;;5089024;28;20032;-58
2021/12/26 03:17:48;;;;;;;5.93;2.15;;;-5.40;95.20;;;;;;5087970;28;20044;-57
2021/12/26 03:20:18;;;;;;;4.32;1.90;;;-5.40;95.00;;;;;;5089846;28;20054;-56
2021/12/26 03:22:44;;;;;;;3.55;1.85;;;-5.30;94.90;;;;;;5080340;28;20489;-56
2021/12/26 03:25:22;;;;;;;2.70;2.15;;;-5.30;94.90;;;;;;5076435;28;20531;-56
2021/12/26 03:27:49;;;;;;;2.80;1.80;;;-5.30;94.70;;;;;;5069313;28;20537;-54
2021/12/26 03:30:20;;;;;;;3.97;1.80;;;-5.30;94.70;;;;;;5072706;28;20359;-53
2021/12/26 03:32:47;;;;;;;5.60;1.95;;;-5.30;94.50;;;;;;5091409;28;20047;-55
2021/12/26 03:35:13;;;;;;;3.00;1.88;;;-5.40;94.50;;;;;;5079556;28;20040;-56
2021/12/26 03:37:40;;;;;;;2.20;2.00;;;-5.40;94.50;;;;;;5089842;28;20032;-52
2021/12/26 03:40:07;;;;;;;3.13;1.92;;;-5.30;94.60;;;;;;5077053;28;20070;-56
2021/12/26 03:42:33;;;;;;;3.78;1.95;;;-5.40;94.60;;;;;;5088293;28;20134;-57
2021/12/26 03:44:59;;;;;;;5.20;3.92;;;-5.40;94.60;;;;;;5076704;28;20040;-52
2021/12/26 03:47:25;;;;;;;4.82;1.98;;;-5.30;94.70;;;;;;5084456;28;20143;-55
2021/12/26 03:49:52;;;;;;;10.90;2.90;;;-5.40;94.70;;;;;;5075000;28;20416;-52
2021/12/26 03:52:18;;;;;;;3.45;2.00;;;-5.40;95.00;;;;;;5075207;28;20405;-57
2021/12/26 03:54:44;;;;;;;7.10;3.73;;;-5.40;94.90;;;;;;5085761;28;20089;-56
2021/12/26 03:57:10;;;;;;;3.27;2.07;;;-5.40;94.80;;;;;;5079365;28;20044;-55
2021/12/26 03:59:35;;;;;;;3.03;2.28;;;-5.40;94.70;;;;;;5083863;28;20032;-57
2021/12/26 04:02:01;;;;;;;2.57;1.80;;;-5.40;94.90;;;;;;5072007;28;20041;-56
2021/12/26 04:04:27;;;;;;;6.17;3.77;;;-5.40;94.80;;;;;;5071619;28;20040;-55
2021/12/26 04:06:53;;;;;;;6.33;2.67;;;-5.30;94.70;;;;;;5059005;28;20795;-56
2021/12/26 04:09:19;;;;;;;3.88;2.85;;;-5.40;95.00;;;;;;5082327;28;20036;-52
2021/12/26 04:11:46;;;;;;;3.78;2.05;;;-5.40;94.90;;;;;;5086313;28;20369;-57
2021/12/26 04:14:18;;;;;;;6.63;2.58;;;-5.40;94.90;;;;;;5071984;28;20051;-57
2021/12/26 04:16:43;;;;;;;3.40;2.80;;;-5.40;95.10;;;;;;5076820;28;20408;-53
2021/12/26 04:19:09;;;;;;;3.67;1.87;;;-5.40;95.00;;;;;;5076014;28;20205;-56
2021/12/26 04:21:35;;;;;;;4.18;2.35;;;-5.40;94.90;;;;;;5074636;28;20035;-57
2021/12/26 04:24:02;;;;;;;3.70;2.40;;;-5.40;94.80;;;;;;5075625;28;20105;-56
2021/12/26 04:26:28;;;;;;;5.60;2.85;;;-5.40;95.00;;;;;;5087604;28;20048;-56
2021/12/26 04:28:54;;;;;;;3.53;2.85;;;-5.40;95.00;;;;;;5071362;28;20109;-55
2021/12/26 04:31:20;;;;;;;4.03;2.83;;;-5.40;95.20;;;;;;5071300;28;20501;-54
2021/12/26 04:33:47;;;;;;;3.10;2.43;;;-5.40;95.30;;;;;;5087104;28;20306;-54
2021/12/26 04:36:14;;;;;;;3.90;3.13;;;-5.40;95.10;;;;;;5078540;28;20029;-57
2021/12/26 04:38:40;;;;;;;4.53;2.50;;;-5.40;95.60;;;;;;5085607;28;20048;-57
2021/12/26 04:41:06;;;;;;;;;;;-5.40;95.20;;;;;;5082009;28;20043;-55
2021/12/26 04:43:35;;;;;;;7.32;2.33;;;-5.40;95.00;;;;;;5087333;28;19916;-57
2021/12/26 04:46:03;;;;;;;7.28;3.08;;;-5.40;94.90;;;;;;5088643;28;20040;-56
2021/12/26 04:48:29;;;;;;;5.25;3.25;;;-5.40;94.90;;;;;;5076013;28;20049;-57
2021/12/26 04:50:54;;;;;;;8.07;3.70;;;-5.40;94.80;;;;;;5090336;28;20038;-57
2021/12/26 04:53:20;;;;;;;3.20;2.42;;;-5.40;94.80;;;;;;5080554;28;20088;-55
2021/12/26 04:55:46;;;;;;;5.70;3.30;;;-5.40;94.70;;;;;;5089146;28;20028;-56
2021/12/26 04:58:11;;;;;;;6.05;2.55;;;-5.40;94.80;;;;;;5079385;28;20048;-55
2021/12/26 05:00:37;;;;;;;3.23;2.53;;;-5.40;94.70;;;;;;5070952;28;20511;-56
2021/12/26 05:03:04;;;;;;;3.67;2.38;;;-5.40;94.50;;;;;;5080615;28;20504;-53
2021/12/26 05:05:30;;;;;;;4.65;1.98;;;-5.40;94.20;;;;;;5089298;28;20041;-53
2021/12/26 05:07:59;;;;;;;6.60;3.58;;;-5.40;94.10;;;;;;5082233;28;20028;-58
2021/12/26 05:10:28;;;;;;;3.38;2.17;;;-5.40;94.20;;;;;;5089714;28;20032;-57
2021/12/26 05:12:54;;;;;;;2.85;2.25;;;-5.40;94.10;;;;;;5081320;28;20032;-57
2021/12/26 05:15:21;;;;;;;2.33;2.03;;;-5.40;94.20;;;;;;5090377;28;20531;-54
2021/12/26 05:17:51;;;;;;;6.57;2.75;;;-5.40;94.20;;;;;;5083384;28;20408;-56
2021/12/26 05:20:20;;;;;;;4.70;2.65;;;-5.40;93.90;;;;;;5069511;28;20051;-56
2021/12/26 05:22:48;;;;;;;2.95;2.58;;;-5.40;94.10;;;;;;5074370;28;20032;-55
2021/12/26 05:25:14;;;;;;;3.13;2.83;;;-5.30;94.10;;;;;;5070664;28;20058;-56
2021/12/26 05:27:40;;;;;;;3.70;3.03;;;-5.30;93.80;;;;;;5072960;28;20036;-57
2021/12/26 05:30:10;;;;;;;4.20;2.53;;;-5.30;93.60;;;;;;5090093;28;20504;-55
2021/12/26 05:32:36;;;;;;;5.28;3.15;;;-5.40;93.70;;;;;;5086759;28;20397;-55
2021/12/26 05:35:01;;;;;;;4.30;2.30;;;-5.30;93.70;;;;;;5070422;28;20099;-56
2021/12/26 05:37:27;;;;;;;4.97;2.80;;;-5.30;93.50;;;;;;5071039;28;20032;-55
2021/12/26 05:39:53;;;;;;;6.37;2.77;;;-5.30;93.40;;;;;;5074540;28;20037;-55
2021/12/26 05:42:19;;;;;;;4.75;2.85;;;-5.30;93.30;;;;;;5089898;28;20500;-55
2021/12/26 05:44:47;;;;;;;4.53;2.93;;;-5.30;93.30;;;;;;5071954;28;20102;-55
2021/12/26 05:47:13;;;;;;;7.00;3.10;;;-5.30;93.30;;;;;;5072210;28;20567;-57
2021/12/26 05:49:40;;;;;;;3.95;3.33;;;-5.30;93.30;;;;;;5088399;28;20051;-55
2021/12/26 05:52:07;;;;;;;4.65;2.42;;;-5.30;93.30;;;;;;5089894;28;20511;-55
2021/12/26 05:54:34;;;;;;;3.67;2.78;;;-5.30;92.80;;;;;;5076395;28;20032;-56
2021/12/26 05:57:01;;;;;;;5.00;3.33;;;-5.30;92.80;;;;;;5089361;28;20057;-57
2021/12/26 05:59:26;;;;;;;5.55;2.22;;;-5.20;92.90;;;;;;5088177;28;20044;-55
2021/12/26 06:01:52;;;;;;;4.03;3.10;;;-5.20;92.70;;;;;;5088456;28;20121;-56
2021/12/26 06:04:18;;;;;;;6.88;2.70;;;-5.20;92.60;;;;;;5078033;28;20032;-56
2021/12/26 06:06:44;;;;;;;2.90;2.57;;;-5.20;92.40;;;;;;5069580;28;20040;-55
2021/12/26 06:09:10;;;;;;;4.63;3.25;;;-5.20;92.10;;;;;;5072269;28;20504;-57
2021/12/26 06:11:36;;;;;;;5.43;2.80;;;-5.20;91.60;;;;;;5076218;28;20397;-55
2021/12/26 06:14:02;;;;;;;5.43;3.20;;;-5.20;92.00;;;;;;5080969;28;20032;-57
2021/12/26 06:16:28;;;;;;;4.00;2.87;;;-5.10;91.80;;;;;;5069644;28;20040;-56
2021/12/26 06:18:53;;;;;;;5.13;3.30;;;-5.10;91.90;;;;;;5077260;28;20035;-57
2021/12/26 06:21:19;;;;;;;4.10;3.77;;;-5.10;91.80;;;;;;5092875;28;20290;-52
2021/12/26 06:23:50;;;;;;;4.87;3.10;;;-5.10;91.60;;;;;;5088650;28;20040;-57
2021/12/26 06:26:21;;;;;;;7.72;3.03;;;-5.10;91.90;;;;;;5077445;28;20286;-55
2021/12/26 06:28:47;;;;;;;8.63;3.60;;;-5.10;92.00;;;;;;5076837;28;20119;-54
2021/12/26 06:31:13;;;;;;;4.53;3.17;;;-5.20;92.00;;;;;;5086636;28;20124;-57
2021/12/26 06:33:40;;;;;;;3.83;3.50;;;-5.10;92.10;;;;;;5075222;28;20068;-52
2021/12/26 06:36:07;;;;;;;5.80;3.42;;;-5.10;92.20;;;;;;5091822;28;20282;-57
2021/12/26 06:38:36;;;;;;;5.05;3.40;;;-5.10;92.10;;;;;;5087555;28;20509;-56
2021/12/26 06:41:03;;;;;;;4.18;3.03;;;-5.10;92.10;;;;;;5090419;28;20419;-56
2021/12/26 06:43:29;;;;;;;4.30;3.03;;;-5.10;92.10;;;;;;5090777;28;20711;-57
2021/12/26 06:45:55;;;;;;;5.53;3.47;;;-5.10;92.20;;;;;;5078308;28;20036;-57
2021/12/26 06:48:22;;;;;;;5.40;3.60;;;-5.10;92.10;;;;;;5092526;28;20575;-54
2021/12/26 06:50:49;;;;;;;3.03;2.20;;;-5.20;92.30;;;;;;5081526;28;20282;-56
2021/12/26 06:53:15;;;;;;;4.90;3.42;;;-5.20;92.40;;;;;;5077614;28;20032;-56
2021/12/26 06:55:41;;;;;;;3.53;3.22;;;-5.20;92.50;;;;;;5076973;28;20078;-55
2021/12/26 06:58:07;;;;;;;5.10;3.97;;;-5.20;92.60;;;;;;5071832;28;20409;-55
2021/12/26 07:00:33;;;;;;;5.97;3.30;;;-5.20;92.70;;;;;;5084221;28;20434;-56
2021/12/26 07:02:59;;;;;;;5.45;3.90;;;-5.20;92.80;;;;;;5093102;28;20173;-56
2021/12/26 07:05:24;;;;;;;3.67;3.03;;;-5.20;92.90;;;;;;5079988;28;20032;-55
2021/12/26 07:07:51;;;;;;;4.00;3.20;;;-5.20;93.00;;;;;;5073745;28;20044;-55
2021/12/26 07:10:17;;;;;;;3.95;3.38;;;-5.20;93.10;;;;;;5082846;28;20033;-56
2021/12/26 07:12:43;;;;;;;5.97;3.42;;;-5.30;93.10;;;;;;5078204;28;20511;-57
2021/12/26 07:15:08;;;;;;;6.07;4.17;;;-5.30;93.20;;;;;;5084264;28;20090;-57
2021/12/26 07:17:34;;;;;;;6.05;4.82;;;-5.30;93.40;;;;;;5072496;28;20746;-56
2021/12/26 07:20:00;;;;;;;3.20;2.67;;;-5.30;93.50;;;;;;5077478;28;20051;-56
2021/12/26 07:22:26;;;;;;;6.03;3.30;;;-5.30;93.50;;;;;;5091422;28;20285;-57
2021/12/26 07:24:51;;;;;;;7.50;4.17;;;-5.30;93.60;;;;;;5077100;28;20301;-57
2021/12/26 07:27:17;;;;;;;5.57;4.10;;;-5.30;93.50;;;;;;5092240;28;20124;-56
2021/12/26 07:29:43;;;;;;;4.10;3.70;;;-5.30;93.60;;;;;;5088658;28;20343;-54
2021/12/26 07:32:10;;;;;;;4.65;3.65;;;-5.30;93.60;;;;;;5089761;28;20483;-54
2021/12/26 07:34:36;;;;;;;5.63;4.35;;;-5.30;93.50;;;;;;5082124;28;20039;-54
2021/12/26 07:37:03;;;;;;;6.18;4.47;;;-5.30;93.70;;;;;;5072018;28;20040;-56
2021/12/26 07:39:29;;;;;;;3.83;3.53;;;-5.30;93.90;;;;;;5083543;28;20064;-57
2021/12/26 07:41:55;;;;;;;4.95;4.43;;;-5.30;94.00;;;;;;5072361;28;20505;-57
2021/12/26 07:44:21;;;;;;;4.57;3.63;;;-5.30;94.00;;;;;;5088865;28;20115;-57
2021/12/26 07:46:47;;;;;;;5.78;4.25;;;-5.30;94.20;;;;;;5082888;28;20116;-57
2021/12/26 07:49:13;;;;;;;5.83;4.00;;;-5.30;94.30;;;;;;5071987;28;20443;-57
2021/12/26 07:51:38;;;;;;;7.85;4.70;;;-5.30;94.40;;;;;;5073738;28;20511;-55
2021/12/26 07:54:04;;;;;;;5.47;3.57;;;-5.30;94.10;;;;;;5075022;28;20028;-57
2021/12/26 07:56:30;;;;;;;5.22;4.35;;;-5.30;94.30;;;;;;5069867;28;20044;-57
2021/12/26 07:58:57;;;;;;;8.07;3.83;;;-5.10;94.50;;;;;;5083674;28;20071;-56
2021/12/26 08:01:26;;;;;;;10.90;4.95;;;-4.90;94.80;;;;;;5070830;28;20051;-55
2021/12/26 08:03:51;;;;;;;4.72;3.63;;;-4.50;94.60;;;;;;5075931;28;20599;-57
2021/12/26 08:06:19;;;;;;;3.83;3.40;;;-4.10;93.40;;;;;;5078089;28;20128;-56
2021/12/26 08:08:49;;;;;;;8.30;3.80;;;-3.80;93.00;;;;;;5071688;28;20056;-54
2021/12/26 08:11:15;;;;;;;5.13;3.75;;;-3.50;92.20;;;;;;5071888;28;20039;-56
2021/12/26 08:13:42;;;;;;;6.22;4.50;;;-3.10;91.70;;;;;;5072064;28;20059;-55
2021/12/26 08:16:08;;;;;;;;;;;-2.50;90.90;;;;;;5071925;28;20055;-55
2021/12/26 08:18:33;;;;;;;4.60;3.33;;;-1.90;88.90;;;;;;5071589;28;19916;-57
2021/12/26 08:21:01;;;;;;;6.95;3.35;;;-1.40;86.50;;;;;;5081909;28;20172;-56
2021/12/26 08:23:27;;;;;;;5.57;3.42;;;-0.90;83.00;;;;;;5071158;28;20051;-58
2021/12/26 08:25:53;;;;;;;4.50;3.88;;;-0.30;80.70;;;;;;5085244;28;20051;-56
2021/12/26 08:28:19;;;;;;;4.38;3.03;;;0.10;74.50;;;;;;5089733;28;20412;-55
2021/12/26 08:30:45;;;;;;;4.57;4.17;;;0.50;71.40;;;;;;5089807;28;20039;-57
2021/12/26 08:33:11;;;;;;;4.82;4.13;;;0.90;69.80;;;;;;5090043;28;20065;-57
2021/12/26 08:35:39;;;;;;;10.10;3.30;;;0.80;66.30;;;;;;5089105;28;20114;-58
2021/12/26 08:38:06;;;;;;;5.30;3.53;;;0.60;66.20;;;;;;5091446;28;20107;-58
2021/12/26 08:40:32;;;;;;;3.95;3.20;;;0.00;64.00;;;;;;5080919;28;20044;-57
2021/12/26 08:42:57;;;;;;;7.57;3.47;;;-0.30;65.50;;;;;;5091024;28;20464;-57
2021/12/26 08:45:25;;;;;;;15.27;4.57;;;-0.50;67.10;;;;;;5083951;28;20061;-57
2021/12/26 08:47:51;;;;;;;52.42;6.18;;;-0.50;67.60;;;;;;5077469;28;20032;-57
2021/12/26 08:50:17;;;;;;;4.95;3.05;;;-0.80;67.20;;;;;;5079608;28;20066;-57
2021/12/26 08:52:43;;;;;;;5.55;4.30;;;-1.10;66.70;;;;;;5069405;28;20481;-57
2021/12/26 08:55:09;;;;;;;4.77;2.97;;;-1.30;68.20;;;;;;5074316;28;20107;-56
2021/12/26 08:57:35;;;;;;;7.82;3.65;;;-1.50;69.60;;;;;;5070464;28;20044;-57
2021/12/26 09:00:03;;;;;;;4.07;2.97;;;-1.20;71.80;;;;;;5088675;28;20044;-56
2021/12/26 09:02:28;;;;;;;8.90;3.13;;;-0.90;68.80;;;;;;5070538;28;20775;-54
2021/12/26 09:04:54;;;;;;;3.50;2.83;;;-0.90;68.90;;;;;;5080805;28;20130;-57
2021/12/26 09:07:19;;;;;;;6.67;2.97;;;-0.90;72.50;;;;;;5076728;28;20092;-58
2021/12/26 09:09:48;;;;;;;5.03;2.90;;;-0.40;73.40;;;;;;5088900;28;20036;-54
2021/12/26 09:12:14;;;;;;;8.07;3.67;;;0.20;69.60;;;;;;5072721;28;20024;-56
2021/12/26 09:14:40;;;;;;;5.47;2.60;;;1.00;69.60;;;;;;5070184;28;20041;-56
2021/12/26 09:17:08;;;;;;;8.20;2.90;;;2.00;67.50;;;;;;5079085;28;20034;-54
2021/12/26 09:19:34;;;;;;;4.43;2.45;;;2.80;61.60;;;;;;5071094;28;20659;-52
2021/12/26 09:22:03;;;;;;;4.38;2.63;;;3.60;60.80;;;;;;5085094;28;20059;-53
2021/12/26 09:24:29;;;;;;;7.35;2.90;;;4.10;57.20;;;;;;5090327;28;20047;-56
2021/12/26 09:26:55;;;;;;;4.93;2.53;;;4.40;55.10;;;;;;5078172;28;20059;-56
2021/12/26 09:29:21;;;;;;;4.22;2.47;;;4.50;53.60;;;;;;5090551;28;20072;-54
2021/12/26 09:31:47;;;;;;;4.32;2.72;;;4.90;52.70;;;;;;5079111;28;20069;-55
2021/12/26 09:34:14;;;;;;;3.70;2.50;;;4.90;51.90;;;;;;5071997;28;20366;-56
2021/12/26 09:36:39;;;;;;;5.43;2.38;;;5.00;50.80;;;;;;5069939;28;20115;-55
2021/12/26 09:39:06;;;;;;;7.83;2.93;;;5.50;53.20;;;;;;5068602;28;20533;-56
2021/12/26 09:41:32;;;;;;;7.18;3.08;;;5.90;51.40;;;;;;5070497;28;20123;-55
2021/12/26 09:43:59;;;;;;;9.97;5.07;;;6.40;52.60;;;;;;5069058;28;20519;-59
2021/12/26 09:46:28;;;;;;;3.45;2.97;;;7.00;51.40;;;;;;5076248;28;20042;-57
2021/12/26 09:48:54;;;;;;;2.38;2.00;;;7.20;48.10;;;;;;5087048;28;20036;-56
2021/12/26 09:51:19;;;;;;;3.20;2.57;;;7.00;47.20;;;;;;5069989;28;20037;-57
2021/12/26 09:53:45;;;;;;;4.20;2.97;;;6.90;46.10;;;;;;5069668;28;20052;-57
2021/12/26 09:56:11;;;;;;;3.20;2.83;;;6.30;46.50;;;;;;5069590;28;20111;-56
2021/12/26 09:58:57;;;;;;;3.97;3.17;;;6.40;46.70;;;;;;5069937;28;20048;-57
2021/12/26 10:01:52;;;;;;;5.97;4.35;;;5.60;45.00;;;;;;5070323;28;20040;-57
2021/12/26 10:04:26;;;;;;;3.65;3.05;;;5.00;47.30;;;;;;5070195;28;20037;-55
2021/12/26 10:06:57;;;;;;;4.55;3.08;;;4.40;49.50;;;;;;5069539;28;20568;-56
2021/12/26 10:09:23;;;;;;;5.50;3.15;;;3.80;51.10;;;;;;5069550;28;20055;-57
2021/12/26 10:11:50;;;;;;;;;;;4.00;52.40;;;;;;5070688;28;20037;-56
2021/12/26 10:14:33;;;;;;;4.07;2.95;;;4.50;51.90;;;;;;5069848;28;19916;-57
2021/12/26 10:17:06;;;;;;;3.95;3.03;;;5.40;50.10;;;;;;5070141;28;20044;-56
2021/12/26 10:19:46;;;;;;;4.60;3.13;;;5.60;48.90;;;;;;5069503;28;20044;-55
2021/12/26 10:22:15;;;;;;;3.97;2.75;;;5.30;48.90;;;;;;5070113;28;20119;-56
2021/12/26 10:24:42;;;;;;;4.18;3.00;;;5.10;48.50;;;;;;5068333;28;20102;-55
2021/12/26 10:27:11;;;;;;;8.90;4.15;;;4.90;49.00;;;;;;5069494;28;20068;-57
2021/12/26 10:29:46;;;;;;;4.20;3.10;;;4.50;49.70;;;;;;5069686;28;20401;-55
2021/12/26 10:32:20;;;;;;;5.15;3.08;;;4.20;50.40;;;;;;5069265;28;20032;-57
2021/12/26 10:35:11;;;;;;;3.25;2.70;;;4.40;51.60;;;;;;5068560;28;20032;-57
2021/12/26 10:37:40;;;;;;;5.95;3.30;;;5.10;50.80;;;;;;5068061;28;20447;-57
2021/12/26 10:40:10;;;;;;;3.83;3.13;;;5.90;50.40;;;;;;5064392;28;20501;-55
2021/12/26 10:42:43;;;;;;;4.40;3.38;;;6.70;50.20;;;;;;5076216;28;20544;-56
2021/12/26 10:45:12;;;;;;;3.45;3.08;;;7.10;47.50;;;;;;5068107;28;20048;-56
2021/12/26 10:47:41;;;;;;;4.35;3.33;;;7.70;47.90;;;;;;5065394;28;20041;-56
2021/12/26 10:50:11;;;;;;;5.53;2.83;;;7.70;46.60;;;;;;5064621;28;20398;-57
2021/12/26 10:52:48;;;;;;;4.50;3.40;;;7.90;47.40;;;;;;5065808;28;20043;-55
2021/12/26 10:55:16;;;;;;;5.50;3.83;;;7.50;46.00;;;;;;5063556;28;20033;-56
2021/12/26 10:57:47;;;;;;;4.18;3.63;;;6.70;46.70;;;;;;5063931;28;20064;-56
2021/12/26 11:00:18;;;;;;;4.85;3.22;;;5.80;47.80;;;;;;5065316;28;20044;-55
2021/12/26 11:02:50;;;;;;;7.05;3.92;;;5.60;48.70;;;;;;5063696;28;20036;-56
2021/12/26 11:05:21;;;;;;;4.28;3.08;;;5.40;49.30;;;;;;5066174;28;20028;-54
2021/12/26 11:07:56;;;;;;;3.47;2.90;;;5.60;51.00;;;;;;5068277;28;20089;-55
2021/12/26 11:10:25;;;;;;;4.00;3.22;;;6.10;48.90;;;;;;5068573;28;20443;-56
2021/12/26 11:12:54;;;;;;;5.75;3.47;;;6.10;49.00;;;;;;5068270;28;20037;-56
2021/12/26 11:15:21;;;;;;;4.47;3.33;;;7.10;48.00;;;;;;5068382;28;20568;-55
2021/12/26 11:17:51;;;;;;;5.05;3.65;;;7.70;47.40;;;;;;5068660;28;20028;-56
2021/12/26 11:20:34;;;;;;;5.80;3.35;;;8.00;46.70;;;;;;5067823;28;20096;-56
2021/12/26 11:23:09;;;;;;;4.13;3.03;;;8.70;45.70;;;;;;5068572;28;20036;-56
2021/12/26 11:25:36;;;;;;;3.03;2.63;;;9.10;45.00;;;;;;5068014;28;20044;-56
2021/12/26 11:28:02;;;;;;;8.07;2.97;;;9.60;44.80;;;;;;5068612;28;20111;-56
2021/12/26 11:30:28;;;;;;;6.65;3.17;;;9.40;43.30;;;;;;5067767;28;20119;-56
2021/12/26 11:32:54;;;;;;;3.53;2.73;;;9.40;43.60;;;;;;5068590;28;20075;-56
2021/12/26 11:35:21;;;;;;;4.32;3.25;;;9.00;43.60;;;;;;5068506;28;20421;-52
2021/12/26 11:37:48;;;;;;;4.82;3.50;;;9.10;43.90;;;;;;5068230;28;20044;-56
2021/12/26 11:40:16;;;;;;;3.72;2.88;;;9.10;44.60;;;;;;5065707;28;20044;-56
2021/12/26 11:43:18;;;;;;;3.70;2.90;;;9.00;43.30;;;;;;5068557;28;20047;-52
2021/12/26 11:45:59;;;;;;;3.97;3.15;;;9.10;44.20;;;;;;5066102;28;20044;-54
2021/12/26 11:48:47;;;;;;;3.65;3.35;;;9.40;44.70;;;;;;5067583;28;20037;-56
2021/12/26 11:51:42;;;;;;;4.88;3.28;;;9.70;44.40;;;;;;5068055;28;20576;-56
2021/12/26 11:54:19;;;;;;;6.25;3.83;;;9.90;43.70;;;;;;5016020;28;20037;-56
2021/12/26 11:56:44;;;;;;;5.20;3.78;;;10.20;43.70;;;;;;5053526;28;20826;-57
2021/12/26 11:59:21;;;;;;;5.93;3.33;;;10.40;43.00;;;;;;5067950;28;20097;-57
2021/12/26 12:01:48;;;;;;;4.95;3.22;;;10.60;42.90;;;;;;5068120;28;20120;-53
2021/12/26 12:04:19;;;;;;;5.25;3.55;;;10.70;42.80;;;;;;5067878;28;20037;-56
2021/12/26 12:06:47;;;;;;;5.15;3.67;;;10.50;43.00;;;;;;5066133;28;20072;-57
2021/12/26 12:09:35;;;;;;;4.35;3.13;;;10.90;43.00;;;;;;5067799;28;20045;-54
2021/12/26 12:12:10;;;;;;;3.60;3.10;;;11.20;42.90;;;;;;5067999;28;20040;-57
2021/12/26 12:14:44;;;;;;;4.00;3.28;;;11.60;42.70;;;;;;5066504;28;20049;-55
2021/12/26 12:17:25;;;;;;;4.65;2.92;;;11.80;42.10;;;;;;5066982;28;20037;-57
2021/12/26 12:20:09;;;;;;;3.85;3.40;;;11.40;41.30;;;;;;5066240;28;20079;-57
2021/12/26 12:22:36;;;;;;;4.78;3.78;;;11.00;41.70;;;;;;5067800;28;20207;-55
2021/12/26 12:25:36;;;;;;;4.03;3.13;;;10.10;41.70;;;;;;5067465;28;20037;-56
2021/12/26 12:28:06;;;;;;;4.03;2.65;;;9.70;43.00;;;;;;5066126;28;20036;-55
2021/12/26 12:30:32;;;;;;;5.00;3.42;;;9.60;44.00;;;;;;5067268;28;20036;-56
2021/12/26 12:33:17;;;;;;;6.13;3.33;;;9.70;44.60;;;;;;5067270;28;20048;-57
2021/12/26 12:36:08;;;;;;;6.78;3.38;;;10.40;43.80;;;;;;5066969;28;20036;-57
2021/12/26 12:38:46;;;;;;;6.43;3.20;;;10.70;43.90;;;;;;5068004;28;20098;-57
2021/12/26 12:41:35;;;;;;;4.45;3.42;;;11.20;42.20;;;;;;5073436;28;20244;-58
2021/12/26 12:44:06;;;;;;;4.63;3.08;;;11.20;41.70;;;;;;5071201;28;20037;-57
2021/12/26 12:46:51;;;;;;;4.68;4.05;;;11.60;42.50;;;;;;5067789;28;20036;-57
2021/12/26 12:49:17;;;;;;;4.68;3.63;;;11.80;42.30;;;;;;5066423;28;20089;-57
2021/12/26 12:51:45;;;;;;;7.60;3.88;;;12.00;41.90;;;;;;5067236;28;20033;-54
2021/12/26 12:54:33;;;;;;;4.00;3.30;;;11.60;42.40;;;;;;5066850;28;20469;-57
2021/12/26 12:57:02;;;;;;;4.38;3.97;;;11.60;42.10;;;;;;5067089;28;20413;-56
2021/12/26 12:59:32;;;;;;;4.75;4.18;;;10.80;41.90;;;;;;5065862;28;20052;-57
2021/12/26 13:01:59;;;;;;;4.55;3.67;;;11.00;43.40;;;;;;5066937;28;20447;-58